sensor_id;sensor_type;location;lat;lon;timestamp;pressure;altitude;pressure_sealevel;temperature;humidity
9249;BME280;4660;41.768;26.198;2024-01-15T00:01:56;100569.09;;;-0.42;100.00
9249;BME280;4660;41.768;26.198;2024-01-15T00:04:22;100585.56;;;-0.37;100.00
9249;BME280;4660;41.768;26.198;2024-01-15T00:06:47;100591.56;;;-0.69;100.00
9249;BME280;4660;41.768;26.198;2024-01-15T00:09:13;100580.41;;;-0.57;100.00
9249;BME280;4660;41.768;26.198;2024-01-15T00:11:38;100577.16;;;-0.45;100.00
9249;BME280;4660;41.768;26.198;2024-01-15T00:14:04;100579.78;;;-0.62;100.00
9249;BME280;4660;41.768;26.198;2024-01-15T00:16:29;100586.84;;;-0.63;100.00
9249;BME280;4660;41.768;26.198;2024-01-15T00:18:55;100586.28;;;-0.69;100.00
9249;BME280;4660;41.768;26.198;2024-01-15T00:21:20;100585.09;;;-1.00;100.00
9249;BME280;4660;41.768;26.198;2024-01-15T00:23:46;100581.44;;;-0.97;100.00
9249;BME280;4660;41.768;26.198;2024-01-15T00:26:12;100577.91;;;-0.79;100.00
9249;BME280;4660;41.768;26.198;2024-01-15T00:28:38;100590.63;;;-0.68;100.00
9249;BME280;4660;41.768;26.198;2024-01-15T00:31:04;100583.97;;;-0.58;100.00
9249;BME280;4660;41.768;26.198;2024-01-15T00:33:30;100582.53;;;-0.65;100.00
9249;BME280;4660;41.768;26.198;2024-01-15T00:35:56;100586.41;;;-0.72;100.00
9249;BME280;4660;41.768;26.198;2024-01-15T00:38:22;100577.28;;;-1.03;100.00
9249;BME280;4660;41.768;26.198;2024-01-15T00:40:47;100574.66;;;-0.84;100.00
9249;BME280;4660;41.768;26.198;2024-01-15T00:43:13;100577.09;;;-0.98;100.00
9249;BME280;4660;41.768;26.198;2024-01-15T00:45:38;100561.00;;;-0.75;100.00
9249;BME280;4660;41.768;26.198;2024-01-15T00:48:04;100564.00;;;-0.64;100.00
9249;BME280;4660;41.768;26.198;2024-01-15T00:50:30;100554.03;;;-0.59;100.00
9249;BME280;4660;41.768;26.198;2024-01-15T00:52:56;100544.38;;;-0.77;100.00
9249;BME280;4660;41.768;26.198;2024-01-15T00:55:22;100563.91;;;-0.62;100.00
9249;BME280;4660;41.768;26.198;2024-01-15T00:57:47;100566.94;;;-0.89;100.00
9249;BME280;4660;41.768;26.198;2024-01-15T01:00:13;100558.72;;;-0.82;100.00
9249;BME280;4660;41.768;26.198;2024-01-15T01:02:39;100558.25;;;-1.28;100.00
9249;BME280;4660;41.768;26.198;2024-01-15T01:05:04;100551.63;;;-1.18;100.00
9249;BME280;4660;41.768;26.198;2024-01-15T01:07:30;100547.03;;;-1.33;100.00
9249;BME280;4660;41.768;26.198;2024-01-15T01:09:55;100547.47;;;-1.24;100.00
9249;BME280;4660;41.768;26.198;2024-01-15T01:12:21;100549.47;;;-1.10;100.00
9249;BME280;4660;41.768;26.198;2024-01-15T01:14:47;100550.47;;;-1.13;100.00
9249;BME280;4660;41.768;26.198;2024-01-15T01:17:12;100554.84;;;-0.93;100.00
9249;BME280;4660;41.768;26.198;2024-01-15T01:19:38;100552.03;;;-0.90;100.00
9249;BME280;4660;41.768;26.198;2024-01-15T01:22:03;100547.25;;;-0.81;100.00
9249;BME280;4660;41.768;26.198;2024-01-15T01:24:29;100550.59;;;-0.78;100.00
9249;BME280;4660;41.768;26.198;2024-01-15T01:26:54;100549.88;;;-0.81;100.00
9249;BME280;4660;41.768;26.198;2024-01-15T01:29:20;100551.63;;;-1.18;100.00
9249;BME280;4660;41.768;26.198;2024-01-15T01:31:45;100548.41;;;-1.25;100.00
9249;BME280;4660;41.768;26.198;2024-01-15T01:34:14;100559.44;;;-1.17;100.00
9249;BME280;4660;41.768;26.198;2024-01-15T01:36:40;100557.53;;;-1.13;100.00
9249;BME280;4660;41.768;26.198;2024-01-15T01:39:06;100566.59;;;-1.00;100.00
9249;BME280;4660;41.768;26.198;2024-01-15T01:41:32;100560.31;;;-0.97;100.00
9249;BME280;4660;41.768;26.198;2024-01-15T01:43:57;100551.06;;;-1.06;100.00
9249;BME280;4660;41.768;26.198;2024-01-15T01:46:24;100552.25;;;-0.94;100.00
9249;BME280;4660;41.768;26.198;2024-01-15T01:48:52;100553.47;;;-1.20;100.00
9249;BME280;4660;41.768;26.198;2024-01-15T01:51:18;100530.16;;;-1.69;100.00
9249;BME280;4660;41.768;26.198;2024-01-15T01:53:45;100556.09;;;-1.78;100.00
9249;BME280;4660;41.768;26.198;2024-01-15T01:56:11;100565.19;;;-1.46;100.00
9249;BME280;4660;41.768;26.198;2024-01-15T01:58:38;100557.03;;;-1.40;100.00
9249;BME280;4660;41.768;26.198;2024-01-15T02:01:03;100536.44;;;-1.71;100.00
9249;BME280;4660;41.768;26.198;2024-01-15T02:03:30;100545.66;;;-1.61;100.00
9249;BME280;4660;41.768;26.198;2024-01-15T02:05:56;100550.84;;;-1.59;100.00
9249;BME280;4660;41.768;26.198;2024-01-15T02:08:22;100547.09;;;-1.74;100.00
9249;BME280;4660;41.768;26.198;2024-01-15T02:10:47;100549.09;;;-1.79;100.00
9249;BME280;4660;41.768;26.198;2024-01-15T02:13:13;100545.25;;;-1.72;100.00
9249;BME280;4660;41.768;26.198;2024-01-15T02:15:40;100544.78;;;-1.61;100.00
9249;BME280;4660;41.768;26.198;2024-01-15T02:18:06;100543.63;;;-1.75;100.00
9249;BME280;4660;41.768;26.198;2024-01-15T02:20:35;100546.06;;;-1.70;100.00
9249;BME280;4660;41.768;26.198;2024-01-15T02:23:08;100546.44;;;-1.79;100.00
9249;BME280;4660;41.768;26.198;2024-01-15T02:25:35;100536.97;;;-1.83;100.00
9249;BME280;4660;41.768;26.198;2024-01-15T02:28:01;100530.84;;;-2.04;100.00
9249;BME280;4660;41.768;26.198;2024-01-15T02:30:28;100516.94;;;-2.08;100.00
9249;BME280;4660;41.768;26.198;2024-01-15T02:32:55;100518.00;;;-2.32;100.00
9249;BME280;4660;41.768;26.198;2024-01-15T02:35:20;100505.22;;;-2.41;100.00
9249;BME280;4660;41.768;26.198;2024-01-15T02:37:46;100515.94;;;-2.46;100.00
9249;BME280;4660;41.768;26.198;2024-01-15T02:40:11;100503.16;;;-2.55;100.00
9249;BME280;4660;41.768;26.198;2024-01-15T02:42:37;100502.34;;;-2.35;100.00
9249;BME280;4660;41.768;26.198;2024-01-15T02:45:03;100491.06;;;-2.18;100.00
9249;BME280;4660;41.768;26.198;2024-01-15T02:47:29;100514.09;;;-1.83;100.00
9249;BME280;4660;41.768;26.198;2024-01-15T02:49:54;100522.59;;;-1.76;100.00
9249;BME280;4660;41.768;26.198;2024-01-15T02:52:20;100507.63;;;-1.76;100.00
9249;BME280;4660;41.768;26.198;2024-01-15T02:54:45;100511.13;;;-1.96;100.00
9249;BME280;4660;41.768;26.198;2024-01-15T02:57:11;100491.84;;;-2.16;100.00
9249;BME280;4660;41.768;26.198;2024-01-15T02:59:36;100487.75;;;-2.24;100.00
9249;BME280;4660;41.768;26.198;2024-01-15T03:02:02;100505.59;;;-1.89;100.00
9249;BME280;4660;41.768;26.198;2024-01-15T03:04:28;100511.34;;;-1.61;100.00
9249;BME280;4660;41.768;26.198;2024-01-15T03:06:53;100510.56;;;-1.63;100.00
9249;BME280;4660;41.768;26.198;2024-01-15T03:09:19;100516.13;;;-1.50;100.00
9249;BME280;4660;41.768;26.198;2024-01-15T03:11:44;100501.22;;;-1.51;100.00
9249;BME280;4660;41.768;26.198;2024-01-15T03:14:10;100512.63;;;-1.51;100.00
9249;BME280;4660;41.768;26.198;2024-01-15T03:16:36;100507.72;;;-1.58;100.00
9249;BME280;4660;41.768;26.198;2024-01-15T03:19:01;100503.06;;;-1.72;100.00
9249;BME280;4660;41.768;26.198;2024-01-15T03:21:27;100509.84;;;-1.85;100.00
9249;BME280;4660;41.768;26.198;2024-01-15T03:23:52;100505.59;;;-1.89;100.00
9249;BME280;4660;41.768;26.198;2024-01-15T03:26:18;100497.19;;;-1.98;100.00
9249;BME280;4660;41.768;26.198;2024-01-15T03:28:43;100502.97;;;-1.89;100.00
9249;BME280;4660;41.768;26.198;2024-01-15T03:31:09;100512.72;;;-1.91;100.00
9249;BME280;4660;41.768;26.198;2024-01-15T03:33:35;100508.13;;;-2.07;100.00
9249;BME280;4660;41.768;26.198;2024-01-15T03:36:00;100501.34;;;-2.33;100.00
9249;BME280;4660;41.768;26.198;2024-01-15T03:38:28;100501.13;;;-2.48;100.00
9249;BME280;4660;41.768;26.198;2024-01-15T03:40:54;100499.91;;;-2.19;100.00
9249;BME280;4660;41.768;26.198;2024-01-15T03:43:19;100503.66;;;-2.05;100.00
9249;BME280;4660;41.768;26.198;2024-01-15T03:45:45;100491.06;;;-2.18;100.00
9249;BME280;4660;41.768;26.198;2024-01-15T03:48:11;100507.00;;;-2.01;100.00
9249;BME280;4660;41.768;26.198;2024-01-15T03:50:36;100508.72;;;-2.41;100.00
9249;BME280;4660;41.768;26.198;2024-01-15T03:53:02;100490.72;;;-2.31;100.00
9249;BME280;4660;41.768;26.198;2024-01-15T03:55:28;100514.03;;;-2.22;100.00
9249;BME280;4660;41.768;26.198;2024-01-15T03:57:53;100497.06;;;-2.35;100.00
9249;BME280;4660;41.768;26.198;2024-01-15T04:00:19;100510.19;;;-2.13;100.00
9249;BME280;4660;41.768;26.198;2024-01-15T04:02:45;100512.59;;;-2.09;100.00
9249;BME280;4660;41.768;26.198;2024-01-15T04:05:10;100512.06;;;-2.17;100.00
9249;BME280;4660;41.768;26.198;2024-01-15T04:07:36;100510.25;;;-2.35;100.00
9249;BME280;4660;41.768;26.198;2024-01-15T04:10:02;100503.09;;;-2.54;100.00
9249;BME280;4660;41.768;26.198;2024-01-15T04:12:28;100513.88;;;-2.60;100.00
9249;BME280;4660;41.768;26.198;2024-01-15T04:14:53;100512.03;;;-2.58;100.00
9249;BME280;4660;41.768;26.198;2024-01-15T04:17:19;100514.06;;;-2.42;100.00
9249;BME280;4660;41.768;26.198;2024-01-15T04:19:44;100507.16;;;-2.67;100.00
9249;BME280;4660;41.768;26.198;2024-01-15T04:22:10;100510.53;;;-2.63;100.00
9249;BME280;4660;41.768;26.198;2024-01-15T04:24:35;100489.25;;;-2.59;100.00
9249;BME280;4660;41.768;26.198;2024-01-15T04:27:01;100515.63;;;-2.38;100.00
9249;BME280;4660;41.768;26.198;2024-01-15T04:29:26;100519.97;;;-2.37;100.00
9249;BME280;4660;41.768;26.198;2024-01-15T04:31:53;100522.69;;;-2.61;100.00
9249;BME280;4660;41.768;26.198;2024-01-15T04:34:18;100513.25;;;-2.44;100.00
9249;BME280;4660;41.768;26.198;2024-01-15T04:36:44;100513.72;;;-2.77;100.00
9249;BME280;4660;41.768;26.198;2024-01-15T04:39:09;100523.09;;;-2.70;100.00
9249;BME280;4660;41.768;26.198;2024-01-15T04:41:36;100522.56;;;-2.58;100.00
9249;BME280;4660;41.768;26.198;2024-01-15T04:44:02;100520.63;;;-2.74;100.00
9249;BME280;4660;41.768;26.198;2024-01-15T04:46:28;100520.22;;;-2.64;100.00
9249;BME280;4660;41.768;26.198;2024-01-15T04:48:53;100515.47;;;-2.56;100.00
9249;BME280;4660;41.768;26.198;2024-01-15T04:51:19;100514.47;;;-2.53;100.00
9249;BME280;4660;41.768;26.198;2024-01-15T04:53:44;100514.13;;;-2.66;100.00
9249;BME280;4660;41.768;26.198;2024-01-15T04:56:10;100509.84;;;-2.68;100.00
9249;BME280;4660;41.768;26.198;2024-01-15T04:58:35;100501.78;;;-2.64;100.00
9249;BME280;4660;41.768;26.198;2024-01-15T05:01:01;100498.09;;;-2.39;100.00
9249;BME280;4660;41.768;26.198;2024-01-15T05:03:27;100501.34;;;-2.33;100.00
9249;BME280;4660;41.768;26.198;2024-01-15T05:05:52;100504.69;;;-2.29;100.00
9249;BME280;4660;41.768;26.198;2024-01-15T05:08:18;100508.50;;;-2.16;100.00
9249;BME280;4660;41.768;26.198;2024-01-15T05:10:43;100512.59;;;-2.29;100.00
9249;BME280;4660;41.768;26.198;2024-01-15T05:13:09;100507.47;;;-2.12;100.00
9249;BME280;4660;41.768;26.198;2024-01-15T05:15:37;100483.94;;;-2.16;100.00
9249;BME280;4660;41.768;26.198;2024-01-15T05:18:03;100492.94;;;-2.02;100.00
9249;BME280;4660;41.768;26.198;2024-01-15T05:20:29;100495.84;;;-2.08;100.00
9249;BME280;4660;41.768;26.198;2024-01-15T05:22:54;100501.13;;;-2.08;100.00
9249;BME280;4660;41.768;26.198;2024-01-15T05:25:20;100497.00;;;-2.34;100.00
9249;BME280;4660;41.768;26.198;2024-01-15T05:27:45;100496.34;;;-2.18;100.00
9249;BME280;4660;41.768;26.198;2024-01-15T05:30:11;100496.13;;;-2.34;100.00
9249;BME280;4660;41.768;26.198;2024-01-15T05:32:37;100496.00;;;-2.31;100.00
9249;BME280;4660;41.768;26.198;2024-01-15T05:35:03;100488.63;;;-2.03;100.00
9249;BME280;4660;41.768;26.198;2024-01-15T05:37:29;100478.25;;;-2.07;100.00
9249;BME280;4660;41.768;26.198;2024-01-15T05:39:54;100484.78;;;-1.96;100.00
9249;BME280;4660;41.768;26.198;2024-01-15T05:42:20;100474.91;;;-1.90;100.00
9249;BME280;4660;41.768;26.198;2024-01-15T05:44:45;100485.88;;;-2.20;100.00
9249;BME280;4660;41.768;26.198;2024-01-15T05:47:11;100457.94;;;-2.24;100.00
9249;BME280;4660;41.768;26.198;2024-01-15T05:49:37;100475.84;;;-2.12;100.00
9249;BME280;4660;41.768;26.198;2024-01-15T05:52:03;100472.81;;;-2.23;100.00
9249;BME280;4660;41.768;26.198;2024-01-15T05:54:29;100469.22;;;-2.20;100.00
9249;BME280;4660;41.768;26.198;2024-01-15T05:56:54;100481.44;;;-2.19;100.00
9249;BME280;4660;41.768;26.198;2024-01-15T05:59:20;100495.84;;;-2.08;100.00
9249;BME280;4660;41.768;26.198;2024-01-15T06:01:46;100492.69;;;-1.96;100.00
9249;BME280;4660;41.768;26.198;2024-01-15T06:04:11;100490.69;;;-1.70;100.00
9249;BME280;4660;41.768;26.198;2024-01-15T06:06:37;100487.31;;;-1.92;100.00
9249;BME280;4660;41.768;26.198;2024-01-15T06:09:02;100467.75;;;-2.28;100.00
9249;BME280;4660;41.768;26.198;2024-01-15T06:11:34;100460.09;;;-2.54;100.00
9249;BME280;4660;41.768;26.198;2024-01-15T06:13:59;100488.44;;;-2.18;100.00
9249;BME280;4660;41.768;26.198;2024-01-15T06:16:28;100469.16;;;-2.00;100.00
9249;BME280;4660;41.768;26.198;2024-01-15T06:18:54;100484.75;;;-1.75;100.00
9249;BME280;4660;41.768;26.198;2024-01-15T06:21:21;100481.28;;;-1.57;100.00
9249;BME280;4660;41.768;26.198;2024-01-15T06:23:46;100477.16;;;-1.62;100.00
9249;BME280;4660;41.768;26.198;2024-01-15T06:26:12;100484.72;;;-1.55;100.00
9249;BME280;4660;41.768;26.198;2024-01-15T06:28:38;100480.13;;;-1.70;100.00
9249;BME280;4660;41.768;26.198;2024-01-15T06:31:03;100490.56;;;-1.48;100.00
9249;BME280;4660;41.768;26.198;2024-01-15T06:33:29;100471.88;;;-1.44;100.00
9249;BME280;4660;41.768;26.198;2024-01-15T06:35:55;100444.28;;;-1.55;100.00
9249;BME280;4660;41.768;26.198;2024-01-15T06:38:22;100485.09;;;-1.07;100.00
9249;BME280;4660;41.768;26.198;2024-01-15T06:40:49;100458.19;;;-1.14;100.00
9249;BME280;4660;41.768;26.198;2024-01-15T06:43:15;100426.91;;;-1.23;100.00
9249;BME280;4660;41.768;26.198;2024-01-15T06:45:41;100481.22;;;-0.81;100.00
9249;BME280;4660;41.768;26.198;2024-01-15T06:48:07;100474.69;;;-0.92;100.00
9249;BME280;4660;41.768;26.198;2024-01-15T06:50:33;100478.00;;;-1.05;100.00
9249;BME280;4660;41.768;26.198;2024-01-15T06:52:58;100485.06;;;-1.25;100.00
9249;BME280;4660;41.768;26.198;2024-01-15T06:55:24;100474.53;;;-1.07;100.00
9249;BME280;4660;41.768;26.198;2024-01-15T06:57:51;100469.41;;;-0.74;100.00
9249;BME280;4660;41.768;26.198;2024-01-15T07:00:17;100471.22;;;-0.58;100.00
9249;BME280;4660;41.768;26.198;2024-01-15T07:02:45;100470.06;;;-0.69;100.00
9249;BME280;4660;41.768;26.198;2024-01-15T07:05:11;100466.13;;;-1.16;100.00
9249;BME280;4660;41.768;26.198;2024-01-15T07:07:37;100467.94;;;-0.80;100.00
9249;BME280;4660;41.768;26.198;2024-01-15T07:10:04;100469.59;;;-0.60;100.00
9249;BME280;4660;41.768;26.198;2024-01-15T07:12:32;100440.84;;;-0.49;100.00
9249;BME280;4660;41.768;26.198;2024-01-15T07:14:58;100464.94;;;-0.55;100.00
9249;BME280;4660;41.768;26.198;2024-01-15T07:17:23;100456.53;;;-0.63;100.00
9249;BME280;4660;41.768;26.198;2024-01-15T07:19:49;100437.56;;;-0.37;100.00
9249;BME280;4660;41.768;26.198;2024-01-15T07:22:14;100469.28;;;-0.19;100.00
9249;BME280;4660;41.768;26.198;2024-01-15T07:24:43;100473.97;;;-0.42;100.00
9249;BME280;4660;41.768;26.198;2024-01-15T07:27:09;100458.53;;;-0.86;100.00
9249;BME280;4660;41.768;26.198;2024-01-15T07:29:35;100457.41;;;-0.45;100.00
9249;BME280;4660;41.768;26.198;2024-01-15T07:32:05;100452.81;;;-0.42;100.00
9249;BME280;4660;41.768;26.198;2024-01-15T07:34:32;100439.72;;;-0.10;100.00
9249;BME280;4660;41.768;26.198;2024-01-15T07:36:59;100440.28;;;0.12;100.00
9249;BME280;4660;41.768;26.198;2024-01-15T07:39:24;100433.63;;;0.05;100.00
9249;BME280;4660;41.768;26.198;2024-01-15T07:41:51;100464.91;;;-0.03;100.00
9249;BME280;4660;41.768;26.198;2024-01-15T07:44:17;100440.28;;;-0.21;100.00
9249;BME280;4660;41.768;26.198;2024-01-15T07:46:46;100411.19;;;-0.71;100.00
9249;BME280;4660;41.768;26.198;2024-01-15T07:49:14;100450.69;;;-0.18;100.00
9249;BME280;4660;41.768;26.198;2024-01-15T07:51:43;100448.84;;;0.17;100.00
9249;BME280;4660;41.768;26.198;2024-01-15T07:54:12;100434.34;;;0.24;100.00
9249;BME280;4660;41.768;26.198;2024-01-15T07:56:58;100447.97;;;0.66;100.00
9249;BME280;4660;41.768;26.198;2024-01-15T07:59:24;100450.41;;;0.85;100.00
9249;BME280;4660;41.768;26.198;2024-01-15T08:01:52;100441.38;;;0.73;100.00
9249;BME280;4660;41.768;26.198;2024-01-15T08:04:22;100450.94;;;0.75;100.00
9249;BME280;4660;41.768;26.198;2024-01-15T08:06:49;100451.03;;;0.90;100.00
9249;BME280;4660;41.768;26.198;2024-01-15T08:09:16;100349.34;;;0.31;100.00
9249;BME280;4660;41.768;26.198;2024-01-15T08:11:46;100353.09;;;0.26;100.00
9249;BME280;4660;41.768;26.198;2024-01-15T08:14:14;100439.69;;;0.88;100.00
9249;BME280;4660;41.768;26.198;2024-01-15T08:16:41;100440.53;;;0.88;100.00
9249;BME280;4660;41.768;26.198;2024-01-15T08:19:07;100340.28;;;0.35;100.00
9249;BME280;4660;41.768;26.198;2024-01-15T08:21:38;100407.97;;;0.70;100.00
9249;BME280;4660;41.768;26.198;2024-01-15T08:24:24;100442.91;;;1.38;100.00
9249;BME280;4660;41.768;26.198;2024-01-15T08:27:00;100443.72;;;1.55;100.00
9249;BME280;4660;41.768;26.198;2024-01-15T08:29:48;100423.31;;;1.41;100.00
9249;BME280;4660;41.768;26.198;2024-01-15T08:32:15;100437.72;;;1.37;100.00
9249;BME280;4660;41.768;26.198;2024-01-15T08:34:43;100425.25;;;1.53;100.00
9249;BME280;4660;41.768;26.198;2024-01-15T08:37:10;100437.19;;;1.60;100.00
9249;BME280;4660;41.768;26.198;2024-01-15T08:39:37;100437.50;;;1.70;100.00
9249;BME280;4660;41.768;26.198;2024-01-15T08:42:05;100431.41;;;1.54;100.00
9249;BME280;4660;41.768;26.198;2024-01-15T08:44:33;100436.19;;;1.77;100.00
9249;BME280;4660;41.768;26.198;2024-01-15T08:47:09;100430.84;;;1.63;100.00
9249;BME280;4660;41.768;26.198;2024-01-15T08:49:37;100418.41;;;1.79;100.00
9249;BME280;4660;41.768;26.198;2024-01-15T08:52:04;100382.00;;;1.53;100.00
9249;BME280;4660;41.768;26.198;2024-01-15T08:54:31;100371.19;;;1.56;100.00
9249;BME280;4660;41.768;26.198;2024-01-15T08:56:59;100390.72;;;1.83;100.00
9249;BME280;4660;41.768;26.198;2024-01-15T08:59:27;100371.91;;;1.88;100.00
9249;BME280;4660;41.768;26.198;2024-01-15T09:01:58;100397.75;;;2.13;100.00
9249;BME280;4660;41.768;26.198;2024-01-15T09:04:24;100394.53;;;2.36;100.00
9249;BME280;4660;41.768;26.198;2024-01-15T09:06:52;100383.13;;;2.20;100.00
9249;BME280;4660;41.768;26.198;2024-01-15T09:09:18;100375.19;;;2.20;100.00
9249;BME280;4660;41.768;26.198;2024-01-15T09:11:45;100381.78;;;2.41;100.00
9249;BME280;4660;41.768;26.198;2024-01-15T09:14:12;100351.97;;;2.24;100.00
9249;BME280;4660;41.768;26.198;2024-01-15T09:16:43;100361.97;;;2.47;100.00
9249;BME280;4660;41.768;26.198;2024-01-15T09:19:18;100239.75;;;1.95;100.00
9249;BME280;4660;41.768;26.198;2024-01-15T09:24:37;100261.63;;;2.52;100.00
9249;BME280;4660;41.768;26.198;2024-01-15T09:27:23;100308.84;;;3.01;100.00
9249;BME280;4660;41.768;26.198;2024-01-15T09:29:53;100339.31;;;3.61;100.00
9249;BME280;4660;41.768;26.198;2024-01-15T09:32:18;100317.28;;;3.58;100.00
9249;BME280;4660;41.768;26.198;2024-01-15T09:34:46;100324.31;;;3.47;100.00
9249;BME280;4660;41.768;26.198;2024-01-15T09:37:12;100330.38;;;3.74;100.00
9249;BME280;4660;41.768;26.198;2024-01-15T09:39:38;100297.28;;;3.66;100.00
9249;BME280;4660;41.768;26.198;2024-01-15T09:42:04;100313.03;;;3.81;100.00
9249;BME280;4660;41.768;26.198;2024-01-15T09:44:30;100292.16;;;3.88;100.00
9249;BME280;4660;41.768;26.198;2024-01-15T09:46:57;100312.75;;;4.10;100.00
9249;BME280;4660;41.768;26.198;2024-01-15T09:49:23;100275.94;;;4.04;100.00
9249;BME280;4660;41.768;26.198;2024-01-15T09:51:49;100303.78;;;4.24;100.00
9249;BME280;4660;41.768;26.198;2024-01-15T09:54:15;100297.94;;;4.42;100.00
9249;BME280;4660;41.768;26.198;2024-01-15T09:56:46;100312.75;;;4.70;100.00
9249;BME280;4660;41.768;26.198;2024-01-15T09:59:22;100307.34;;;4.72;100.00
9249;BME280;4660;41.768;26.198;2024-01-15T10:01:50;100287.94;;;4.46;100.00
9249;BME280;4660;41.768;26.198;2024-01-15T10:04:15;100296.38;;;4.64;100.00
9249;BME280;4660;41.768;26.198;2024-01-15T10:06:44;100288.19;;;4.78;100.00
9249;BME280;4660;41.768;26.198;2024-01-15T10:09:13;100296.75;;;4.70;100.00
9249;BME280;4660;41.768;26.198;2024-01-15T10:11:42;100292.41;;;4.93;100.00
9249;BME280;4660;41.768;26.198;2024-01-15T10:14:12;100284.63;;;4.90;100.00
9249;BME280;4660;41.768;26.198;2024-01-15T10:16:41;100264.78;;;4.94;100.00
9249;BME280;4660;41.768;26.198;2024-01-15T10:19:10;100258.81;;;4.91;100.00
9249;BME280;4660;41.768;26.198;2024-01-15T10:21:36;100253.91;;;5.20;100.00
9249;BME280;4660;41.768;26.198;2024-01-15T10:24:03;100231.28;;;5.37;100.00
9249;BME280;4660;41.768;26.198;2024-01-15T10:26:30;100222.78;;;5.43;100.00
9249;BME280;4660;41.768;26.198;2024-01-15T10:28:57;100225.81;;;5.38;100.00
9249;BME280;4660;41.768;26.198;2024-01-15T10:31:23;100244.13;;;5.76;100.00
9249;BME280;4660;41.768;26.198;2024-01-15T10:33:49;100239.28;;;5.93;100.00
9249;BME280;4660;41.768;26.198;2024-01-15T10:36:15;100234.19;;;5.90;100.00
9249;BME280;4660;41.768;26.198;2024-01-15T10:38:43;100232.47;;;6.11;100.00
9249;BME280;4660;41.768;26.198;2024-01-15T10:41:09;100230.88;;;6.20;100.00
9249;BME280;4660;41.768;26.198;2024-01-15T10:43:34;100235.00;;;6.13;100.00
9249;BME280;4660;41.768;26.198;2024-01-15T10:46:00;100179.94;;;5.89;100.00
9249;BME280;4660;41.768;26.198;2024-01-15T10:48:26;100208.63;;;5.65;100.00
9249;BME280;4660;41.768;26.198;2024-01-15T10:50:54;100205.56;;;5.69;100.00
9249;BME280;4660;41.768;26.198;2024-01-15T10:53:20;100200.72;;;5.74;100.00
9249;BME280;4660;41.768;26.198;2024-01-15T10:55:47;100179.59;;;5.71;100.00
9249;BME280;4660;41.768;26.198;2024-01-15T10:58:17;100202.03;;;6.02;100.00
9249;BME280;4660;41.768;26.198;2024-01-15T11:00:43;100199.66;;;6.20;100.00
9249;BME280;4660;41.768;26.198;2024-01-15T11:03:09;100207.59;;;6.11;100.00
9249;BME280;4660;41.768;26.198;2024-01-15T11:05:42;100198.25;;;6.16;100.00
9249;BME280;4660;41.768;26.198;2024-01-15T11:08:08;100177.28;;;6.00;100.00
9249;BME280;4660;41.768;26.198;2024-01-15T11:10:47;100182.28;;;5.94;100.00
9249;BME280;4660;41.768;26.198;2024-01-15T11:13:21;100193.28;;;5.78;100.00
9249;BME280;4660;41.768;26.198;2024-01-15T11:18:35;100189.53;;;5.92;100.00
9249;BME280;4660;41.768;26.198;2024-01-15T11:23:46;100181.00;;;6.73;100.00
9249;BME280;4660;41.768;26.198;2024-01-15T11:26:38;100177.72;;;6.90;100.00
9249;BME280;4660;41.768;26.198;2024-01-15T11:29:41;100098.06;;;6.43;100.00
9249;BME280;4660;41.768;26.198;2024-01-15T11:32:10;100165.66;;;6.54;100.00
9249;BME280;4660;41.768;26.198;2024-01-15T11:35:12;100163.34;;;6.50;100.00
9249;BME280;4660;41.768;26.198;2024-01-15T11:40:39;100147.97;;;6.42;100.00
9249;BME280;4660;41.768;26.198;2024-01-15T11:43:07;100151.44;;;6.54;100.00
9249;BME280;4660;41.768;26.198;2024-01-15T11:45:34;100135.22;;;6.46;100.00
9249;BME280;4660;41.768;26.198;2024-01-15T11:50:33;100129.16;;;6.44;100.00
9249;BME280;4660;41.768;26.198;2024-01-15T11:53:13;100125.94;;;6.50;100.00
9249;BME280;4660;41.768;26.198;2024-01-15T11:55:44;100127.59;;;6.41;100.00
9249;BME280;4660;41.768;26.198;2024-01-15T11:58:12;100120.16;;;6.24;100.00
9249;BME280;4660;41.768;26.198;2024-01-15T12:00:47;100118.16;;;6.05;100.00
9249;BME280;4660;41.768;26.198;2024-01-15T12:03:22;100115.25;;;5.86;100.00
9249;BME280;4660;41.768;26.198;2024-01-15T12:05:48;100114.19;;;5.88;100.00
9249;BME280;4660;41.768;26.198;2024-01-15T12:10:49;100020.28;;;5.08;100.00
9249;BME280;4660;41.768;26.198;2024-01-15T12:13:16;100121.50;;;5.75;100.00
9249;BME280;4660;41.768;26.198;2024-01-15T12:15:44;100011.16;;;5.10;100.00
9249;BME280;4660;41.768;26.198;2024-01-15T12:18:12;100115.75;;;6.02;100.00
9249;BME280;4660;41.768;26.198;2024-01-15T12:20:39;100112.34;;;6.00;100.00
9249;BME280;4660;41.768;26.198;2024-01-15T12:23:05;100118.47;;;5.79;100.00
9249;BME280;4660;41.768;26.198;2024-01-15T12:25:33;100110.66;;;5.88;100.00
9249;BME280;4660;41.768;26.198;2024-01-15T12:28:00;100108.59;;;5.91;100.00
9249;BME280;4660;41.768;26.198;2024-01-15T12:30:32;100097.94;;;5.91;100.00
9249;BME280;4660;41.768;26.198;2024-01-15T12:32:58;100084.22;;;5.96;100.00
9249;BME280;4660;41.768;26.198;2024-01-15T12:35:26;100096.56;;;6.29;100.00
9249;BME280;4660;41.768;26.198;2024-01-15T12:37:51;100101.97;;;6.39;100.00
9249;BME280;4660;41.768;26.198;2024-01-15T12:40:20;100082.44;;;6.38;100.00
9249;BME280;4660;41.768;26.198;2024-01-15T12:42:47;100069.88;;;6.29;100.00
9249;BME280;4660;41.768;26.198;2024-01-15T12:45:12;100079.16;;;6.14;100.00
9249;BME280;4660;41.768;26.198;2024-01-15T12:47:40;100069.88;;;5.97;100.00
9249;BME280;4660;41.768;26.198;2024-01-15T12:50:09;100067.69;;;6.02;100.00
9249;BME280;4660;41.768;26.198;2024-01-15T12:52:36;100046.06;;;6.05;100.00
9249;BME280;4660;41.768;26.198;2024-01-15T12:55:05;100058.31;;;6.28;100.00
9249;BME280;4660;41.768;26.198;2024-01-15T12:57:31;100066.28;;;6.40;100.00
9249;BME280;4660;41.768;26.198;2024-01-15T12:59:56;100065.16;;;6.42;100.00
9249;BME280;4660;41.768;26.198;2024-01-15T13:02:22;100082.25;;;6.30;100.00
9249;BME280;4660;41.768;26.198;2024-01-15T13:04:50;99985.75;;;5.70;100.00
9249;BME280;4660;41.768;26.198;2024-01-15T13:07:16;100007.78;;;5.84;100.00
9249;BME280;4660;41.768;26.198;2024-01-15T13:09:42;100060.41;;;6.25;100.00
9249;BME280;4660;41.768;26.198;2024-01-15T13:12:08;100052.06;;;6.18;100.00